sensor_id;sensor_type;location;lat;lon;timestamp;pressure;altitude;pressure_sealevel;temperature;humidity
17936;BME280;9093;52.062;4.508;2023-07-31T00:01:13;101226.28;;;17.77;84.94
17936;BME280;9093;52.062;4.508;2023-07-31T00:03:53;101229.94;;;17.76;84.88
17936;BME280;9093;52.062;4.508;2023-07-31T00:06:34;101226.59;;;17.72;85.14
17936;BME280;9093;52.062;4.508;2023-07-31T00:09:14;101226.59;;;17.72;85.43
17936;BME280;9093;52.062;4.508;2023-07-31T00:11:54;101229.31;;;17.72;85.34
17936;BME280;9093;52.062;4.508;2023-07-31T00:14:35;101236.53;;;17.72;85.61
17936;BME280;9093;52.062;4.508;2023-07-31T00:17:17;101228.44;;;17.72;85.58
17936;BME280;9093;52.062;4.508;2023-07-31T00:19:58;101221.31;;;17.71;85.65
17936;BME280;9093;52.062;4.508;2023-07-31T00:22:38;101221.31;;;17.71;85.99
17936;BME280;9093;52.062;4.508;2023-07-31T00:25:18;101219.63;;;17.70;85.87
17936;BME280;9093;52.062;4.508;2023-07-31T00:27:59;101215.41;;;17.65;86.20
17936;BME280;9093;52.062;4.508;2023-07-31T00:30:39;101213.69;;;17.64;86.25
17936;BME280;9093;52.062;4.508;2023-07-31T00:33:19;101227.94;;;17.66;86.37
17936;BME280;9093;52.062;4.508;2023-07-31T00:36:00;101215.31;;;17.67;86.31
17936;BME280;9093;52.062;4.508;2023-07-31T00:38:40;101226.09;;;17.67;86.46
17936;BME280;9093;52.062;4.508;2023-07-31T00:41:20;101219.84;;;17.66;86.44
17936;BME280;9093;52.062;4.508;2023-07-31T00:44:01;101222.78;;;17.63;86.56
17936;BME280;9093;52.062;4.508;2023-07-31T00:46:41;101222.03;;;17.61;86.55
17936;BME280;9093;52.062;4.508;2023-07-31T00:49:22;101227.44;;;17.61;86.78
17936;BME280;9093;52.062;4.508;2023-07-31T00:52:03;101229.16;;;17.62;86.92
17936;BME280;9093;52.062;4.508;2023-07-31T00:54:43;101206.88;;;17.59;86.66
17936;BME280;9093;52.062;4.508;2023-07-31T00:57:24;101215.84;;;17.59;86.78
17936;BME280;9093;52.062;4.508;2023-07-31T01:00:04;101210.44;;;17.59;86.82
17936;BME280;9093;52.062;4.508;2023-07-31T01:02:45;101209.75;;;17.57;86.93
17936;BME280;9093;52.062;4.508;2023-07-31T01:05:43;101217.84;;;17.57;87.14
17936;BME280;9093;52.062;4.508;2023-07-31T01:08:41;101212.53;;;17.56;87.15
17936;BME280;9093;52.062;4.508;2023-07-31T01:11:28;101212.53;;;17.56;86.98
17936;BME280;9093;52.062;4.508;2023-07-31T01:14:08;101211.69;;;17.55;86.99
17936;BME280;9093;52.062;4.508;2023-07-31T01:16:49;101195.47;;;17.55;87.18
17936;BME280;9093;52.062;4.508;2023-07-31T01:19:29;101208.97;;;17.55;87.11
17936;BME280;9093;52.062;4.508;2023-07-31T01:25:16;101201.84;;;17.54;87.24
17936;BME280;9093;52.062;4.508;2023-07-31T01:28:07;101208.00;;;17.56;87.02
17936;BME280;9093;52.062;4.508;2023-07-31T01:30:48;101192.53;;;17.58;87.16
17936;BME280;9093;52.062;4.508;2023-07-31T01:33:29;101207.75;;;17.59;87.27
17936;BME280;9093;52.062;4.508;2023-07-31T01:36:10;101204.34;;;17.57;87.15
17936;BME280;9093;52.062;4.508;2023-07-31T01:38:51;101206.28;;;17.55;87.11
17936;BME280;9093;52.062;4.508;2023-07-31T01:41:31;101200.88;;;17.55;87.09
17936;BME280;9093;52.062;4.508;2023-07-31T01:44:12;101194.50;;;17.56;87.12
17936;BME280;9093;52.062;4.508;2023-07-31T01:46:52;101178.41;;;17.55;87.18
17936;BME280;9093;52.062;4.508;2023-07-31T01:49:32;101180.75;;;17.59;87.09
17936;BME280;9093;52.062;4.508;2023-07-31T01:52:12;101168.22;;;17.58;87.17
17936;BME280;9093;52.062;4.508;2023-07-31T01:54:53;101171.94;;;17.57;87.32
17936;BME280;9093;52.062;4.508;2023-07-31T01:57:33;101161.13;;;17.57;87.23
17936;BME280;9093;52.062;4.508;2023-07-31T02:00:13;101163.09;;;17.55;87.25
17936;BME280;9093;52.062;4.508;2023-07-31T02:02:54;101146.88;;;17.55;87.32
17936;BME280;9093;52.062;4.508;2023-07-31T02:05:34;101139.75;;;17.54;87.25
17936;BME280;9093;52.062;4.508;2023-07-31T02:08:15;101132.41;;;17.56;87.30
17936;BME280;9093;52.062;4.508;2023-07-31T02:10:56;101137.81;;;17.56;87.16
17936;BME280;9093;52.062;4.508;2023-07-31T02:13:36;101127.72;;;17.58;87.21
17936;BME280;9093;52.062;4.508;2023-07-31T02:16:16;101139.31;;;17.60;87.16
17936;BME280;9093;52.062;4.508;2023-07-31T02:18:56;101132.16;;;17.59;87.09
17936;BME280;9093;52.062;4.508;2023-07-31T02:21:37;101130.25;;;17.61;87.33
17936;BME280;9093;52.062;4.508;2023-07-31T02:24:17;101140.78;;;17.64;87.45
17936;BME280;9093;52.062;4.508;2023-07-31T02:26:57;101140.06;;;17.62;87.32
17936;BME280;9093;52.062;4.508;2023-07-31T02:29:38;101142.75;;;17.62;87.32
17936;BME280;9093;52.062;4.508;2023-07-31T02:32:18;101135.53;;;17.63;87.21
17936;BME280;9093;52.062;4.508;2023-07-31T02:34:58;101128.28;;;17.63;87.25
17936;BME280;9093;52.062;4.508;2023-07-31T02:37:38;101131.97;;;17.62;87.12
17936;BME280;9093;52.062;4.508;2023-07-31T02:40:19;101124.84;;;17.61;87.13
17936;BME280;9093;52.062;4.508;2023-07-31T02:42:59;101123.13;;;17.60;87.15
17936;BME280;9093;52.062;4.508;2023-07-31T02:45:39;101122.22;;;17.60;87.18
17936;BME280;9093;52.062;4.508;2023-07-31T02:48:20;101121.34;;;17.59;87.28
17936;BME280;9093;52.062;4.508;2023-07-31T02:51:00;101119.44;;;17.61;87.21
17936;BME280;9093;52.062;4.508;2023-07-31T02:53:40;101115.94;;;17.59;87.22
17936;BME280;9093;52.062;4.508;2023-07-31T02:56:20;101104.28;;;17.59;87.01
17936;BME280;9093;52.062;4.508;2023-07-31T02:59:01;101101.75;;;17.57;87.10
17936;BME280;9093;52.062;4.508;2023-07-31T03:01:41;101112.53;;;17.57;87.19
17936;BME280;9093;52.062;4.508;2023-07-31T03:04:21;101109.31;;;17.52;87.23
17936;BME280;9093;52.062;4.508;2023-07-31T03:07:02;101091.41;;;17.51;87.25
17936;BME280;9093;52.062;4.508;2023-07-31T03:09:42;101092.41;;;17.50;87.36
17936;BME280;9093;52.062;4.508;2023-07-31T03:12:23;101086.03;;;17.51;87.32
17936;BME280;9093;52.062;4.508;2023-07-31T03:15:03;101084.03;;;17.53;87.60
17936;BME280;9093;52.062;4.508;2023-07-31T03:17:44;101089.44;;;17.53;87.39
17936;BME280;9093;52.062;4.508;2023-07-31T03:20:24;101089.22;;;17.56;87.46
17936;BME280;9093;52.062;4.508;2023-07-31T03:23:04;101091.78;;;17.58;87.40
17936;BME280;9093;52.062;4.508;2023-07-31T03:26:02;101080.84;;;17.59;87.31
17936;BME280;9093;52.062;4.508;2023-07-31T03:28:45;101085.31;;;17.60;87.38
17936;BME280;9093;52.062;4.508;2023-07-31T03:31:26;101082.63;;;17.60;87.18
17936;BME280;9093;52.062;4.508;2023-07-31T03:34:06;101076.25;;;17.61;87.30
17936;BME280;9093;52.062;4.508;2023-07-31T03:36:46;101086.19;;;17.61;87.31
17936;BME280;9093;52.062;4.508;2023-07-31T03:39:27;101081.63;;;17.61;87.23
17936;BME280;9093;52.062;4.508;2023-07-31T03:42:07;101077.97;;;17.62;87.40
17936;BME280;9093;52.062;4.508;2023-07-31T03:44:47;101068.88;;;17.63;87.39
17936;BME280;9093;52.062;4.508;2023-07-31T03:47:27;101063.47;;;17.63;87.31
17936;BME280;9093;52.062;4.508;2023-07-31T03:50:08;101052.69;;;17.63;87.43
17936;BME280;9093;52.062;4.508;2023-07-31T03:52:48;101058.78;;;17.65;87.29
17936;BME280;9093;52.062;4.508;2023-07-31T03:55:28;101047.03;;;17.66;87.21
17936;BME280;9093;52.062;4.508;2023-07-31T03:58:09;101046.16;;;17.66;87.28
17936;BME280;9093;52.062;4.508;2023-07-31T04:00:49;101043.56;;;17.64;87.48
17936;BME280;9093;52.062;4.508;2023-07-31T04:03:30;101038.16;;;17.64;87.46
17936;BME280;9093;52.062;4.508;2023-07-31T04:06:10;101045.56;;;17.62;87.42
17936;BME280;9093;52.062;4.508;2023-07-31T04:08:50;101037.47;;;17.62;87.49
17936;BME280;9093;52.062;4.508;2023-07-31T04:11:30;101037.34;;;17.64;87.67
17936;BME280;9093;52.062;4.508;2023-07-31T04:14:11;101031.09;;;17.63;87.78
17936;BME280;9093;52.062;4.508;2023-07-31T04:16:51;101030.22;;;17.63;87.66
17936;BME280;9093;52.062;4.508;2023-07-31T04:19:32;101031.09;;;17.63;87.80
17936;BME280;9093;52.062;4.508;2023-07-31T04:22:12;101020.28;;;17.63;87.64
17936;BME280;9093;52.062;4.508;2023-07-31T04:24:52;101020.28;;;17.63;87.76
17936;BME280;9093;52.062;4.508;2023-07-31T04:27:33;101022.22;;;17.61;87.74
17936;BME280;9093;52.062;4.508;2023-07-31T04:30:13;101006.50;;;17.55;87.93
17936;BME280;9093;52.062;4.508;2023-07-31T04:32:54;101007.84;;;17.50;88.28
17936;BME280;9093;52.062;4.508;2023-07-31T04:35:34;100999.13;;;17.46;88.31
17936;BME280;9093;52.062;4.508;2023-07-31T04:38:14;101000.09;;;17.45;88.40
17936;BME280;9093;52.062;4.508;2023-07-31T04:40:54;101012.63;;;17.46;88.43
17936;BME280;9093;52.062;4.508;2023-07-31T04:43:35;101012.88;;;17.43;88.38
17936;BME280;9093;52.062;4.508;2023-07-31T04:46:15;101019.00;;;17.45;88.55
17936;BME280;9093;52.062;4.508;2023-07-31T04:48:56;101000.97;;;17.46;88.70
17936;BME280;9093;52.062;4.508;2023-07-31T04:51:36;101003.81;;;17.44;88.66
17936;BME280;9093;52.062;4.508;2023-07-31T04:54:17;101004.03;;;17.41;88.60
17936;BME280;9093;52.062;4.508;2023-07-31T04:56:57;100999.13;;;17.35;88.61
17936;BME280;9093;52.062;4.508;2023-07-31T04:59:37;100992.00;;;17.34;88.91
17936;BME280;9093;52.062;4.508;2023-07-31T05:02:18;101001.06;;;17.33;88.75
17936;BME280;9093;52.062;4.508;2023-07-31T05:04:58;100997.88;;;17.28;88.90
17936;BME280;9093;52.062;4.508;2023-07-31T05:07:38;100995.44;;;17.25;89.04
17936;BME280;9093;52.062;4.508;2023-07-31T05:10:19;100985.63;;;17.24;88.86
17936;BME280;9093;52.062;4.508;2023-07-31T05:12:59;100987.34;;;17.25;89.13
17936;BME280;9093;52.062;4.508;2023-07-31T05:15:41;100979.25;;;17.25;89.02
17936;BME280;9093;52.062;4.508;2023-07-31T05:18:21;100982.56;;;17.28;89.18
17936;BME280;9093;52.062;4.508;2023-07-31T05:21:01;100974.59;;;17.27;88.86
17936;BME280;9093;52.062;4.508;2023-07-31T05:23:42;100968.47;;;17.25;89.04
17936;BME280;9093;52.062;4.508;2023-07-31T05:26:22;100974.59;;;17.27;89.07
17936;BME280;9093;52.062;4.508;2023-07-31T05:29:02;100970.03;;;17.27;88.82
17936;BME280;9093;52.062;4.508;2023-07-31T05:31:43;100967.50;;;17.26;89.09
17936;BME280;9093;52.062;4.508;2023-07-31T05:34:23;100947.75;;;17.25;89.18
17936;BME280;9093;52.062;4.508;2023-07-31T05:37:04;100960.13;;;17.28;89.16
17936;BME280;9093;52.062;4.508;2023-07-31T05:39:44;100943.69;;;17.31;88.96
17936;BME280;9093;52.062;4.508;2023-07-31T05:42:25;100947.38;;;17.30;88.98
17936;BME280;9093;52.062;4.508;2023-07-31T05:45:06;100951.03;;;17.29;89.10
17936;BME280;9093;52.062;4.508;2023-07-31T05:47:47;100940.25;;;17.29;89.07
17936;BME280;9093;52.062;4.508;2023-07-31T05:50:27;100946.25;;;17.33;89.14
17936;BME280;9093;52.062;4.508;2023-07-31T05:53:07;100938.03;;;17.34;88.99
17936;BME280;9093;52.062;4.508;2023-07-31T05:55:48;100940.72;;;17.34;89.18
17936;BME280;9093;52.062;4.508;2023-07-31T05:58:28;100936.31;;;17.33;89.20
17936;BME280;9093;52.062;4.508;2023-07-31T06:01:08;100929.06;;;17.34;89.07
17936;BME280;9093;52.062;4.508;2023-07-31T06:03:49;100928.09;;;17.35;89.15
17936;BME280;9093;52.062;4.508;2023-07-31T06:06:29;100932.50;;;17.36;89.14
17936;BME280;9093;52.062;4.508;2023-07-31T06:09:09;100938.78;;;17.36;89.11
17936;BME280;9093;52.062;4.508;2023-07-31T06:11:50;100936.06;;;17.36;89.24
17936;BME280;9093;52.062;4.508;2023-07-31T06:14:30;100931.44;;;17.38;89.24
17936;BME280;9093;52.062;4.508;2023-07-31T06:17:10;100936.66;;;17.40;89.43
17936;BME280;9093;52.062;4.508;2023-07-31T06:19:51;100915.72;;;17.43;89.63
17936;BME280;9093;52.062;4.508;2023-07-31T06:22:31;100913.59;;;17.47;89.26
17936;BME280;9093;52.062;4.508;2023-07-31T06:25:12;100919.47;;;17.52;89.16
17936;BME280;9093;52.062;4.508;2023-07-31T06:27:52;100922.06;;;17.53;89.04
17936;BME280;9093;52.062;4.508;2023-07-31T06:30:32;100913.97;;;17.53;89.30
17936;BME280;9093;52.062;4.508;2023-07-31T06:33:12;100908.69;;;17.52;89.20
17936;BME280;9093;52.062;4.508;2023-07-31T06:35:53;100915.69;;;17.54;89.14
17936;BME280;9093;52.062;4.508;2023-07-31T06:38:33;100910.75;;;17.59;89.59
17936;BME280;9093;52.062;4.508;2023-07-31T06:41:13;100908.84;;;17.61;89.45
17936;BME280;9093;52.062;4.508;2023-07-31T06:43:54;100910.56;;;17.62;89.19
17936;BME280;9093;52.062;4.508;2023-07-31T06:46:34;100903.44;;;17.61;89.49
17936;BME280;9093;52.062;4.508;2023-07-31T06:49:14;100902.56;;;17.61;89.17
17936;BME280;9093;52.062;4.508;2023-07-31T06:51:57;100901.94;;;17.57;89.24
17936;BME280;9093;52.062;4.508;2023-07-31T06:54:37;100906.22;;;17.60;89.42
17936;BME280;9093;52.062;4.508;2023-07-31T06:57:18;100896.31;;;17.60;89.41
17936;BME280;9093;52.062;4.508;2023-07-31T06:59:58;100898.03;;;17.61;89.75
17936;BME280;9093;52.062;4.508;2023-07-31T07:02:38;100900.47;;;17.64;89.62
17936;BME280;9093;52.062;4.508;2023-07-31T07:05:19;100890.41;;;17.66;89.72
17936;BME280;9093;52.062;4.508;2023-07-31T07:07:59;100893.59;;;17.72;89.94
17936;BME280;9093;52.062;4.508;2023-07-31T07:10:40;100884.38;;;17.74;89.59
17936;BME280;9093;52.062;4.508;2023-07-31T07:13:21;100900.31;;;17.77;89.62
17936;BME280;9093;52.062;4.508;2023-07-31T07:16:01;100904.50;;;17.81;89.61
17936;BME280;9093;52.062;4.508;2023-07-31T07:18:42;100902.66;;;17.82;89.61
17936;BME280;9093;52.062;4.508;2023-07-31T07:21:22;100905.34;;;17.82;89.59
17936;BME280;9093;52.062;4.508;2023-07-31T07:24:03;100907.31;;;17.80;89.68
17936;BME280;9093;52.062;4.508;2023-07-31T07:26:43;100894.56;;;17.82;89.65
17936;BME280;9093;52.062;4.508;2023-07-31T07:29:23;100907.06;;;17.83;89.63
17936;BME280;9093;52.062;4.508;2023-07-31T07:32:04;100897.25;;;17.82;89.75
17936;BME280;9093;52.062;4.508;2023-07-31T07:34:45;100896.28;;;17.83;89.91
17936;BME280;9093;52.062;4.508;2023-07-31T07:37:25;100901.41;;;17.86;90.04
17936;BME280;9093;52.062;4.508;2023-07-31T07:40:06;100901.16;;;17.89;89.85
17936;BME280;9093;52.062;4.508;2023-07-31T07:42:47;100899.16;;;17.91;90.06
17936;BME280;9093;52.062;4.508;2023-07-31T07:45:27;100898.94;;;17.94;90.09
17936;BME280;9093;52.062;4.508;2023-07-31T07:48:07;100898.66;;;17.97;90.14
17936;BME280;9093;52.062;4.508;2023-07-31T07:50:48;100904.56;;;18.02;90.04
17936;BME280;9093;52.062;4.508;2023-07-31T07:53:29;100896.19;;;18.05;89.99
17936;BME280;9093;52.062;4.508;2023-07-31T07:56:09;100897.16;;;18.04;90.24
17936;BME280;9093;52.062;4.508;2023-07-31T07:58:50;100892.50;;;18.06;90.03
17936;BME280;9093;52.062;4.508;2023-07-31T08:01:30;100895.06;;;18.07;90.21
17936;BME280;9093;52.062;4.508;2023-07-31T08:04:10;100899.34;;;18.10;90.34
17936;BME280;9093;52.062;4.508;2023-07-31T08:06:51;100890.25;;;18.11;90.26
17936;BME280;9093;52.062;4.508;2023-07-31T08:09:31;100878.34;;;18.14;90.30
17936;BME280;9093;52.062;4.508;2023-07-31T08:12:11;100880.78;;;18.17;90.26
17936;BME280;9093;52.062;4.508;2023-07-31T08:14:52;100871.56;;;18.19;90.41
17936;BME280;9093;52.062;4.508;2023-07-31T08:17:32;100886.06;;;18.18;90.45
17936;BME280;9093;52.062;4.508;2023-07-31T08:20:12;100877.94;;;18.18;90.34
17936;BME280;9093;52.062;4.508;2023-07-31T08:22:52;100881.63;;;18.17;90.36
17936;BME280;9093;52.062;4.508;2023-07-31T08:25:35;100873.53;;;18.17;90.49
17936;BME280;9093;52.062;4.508;2023-07-31T08:28:15;100865.41;;;18.17;90.47
17936;BME280;9093;52.062;4.508;2023-07-31T08:30:56;100871.28;;;18.22;90.67
17936;BME280;9093;52.062;4.508;2023-07-31T08:33:37;100879.84;;;18.27;90.69
17936;BME280;9093;52.062;4.508;2023-07-31T08:36:17;100865.34;;;18.28;90.44
17936;BME280;9093;52.062;4.508;2023-07-31T08:38:57;100867.06;;;18.29;90.68
17936;BME280;9093;52.062;4.508;2023-07-31T08:41:38;100865.09;;;18.31;90.71
17936;BME280;9093;52.062;4.508;2023-07-31T08:44:19;100864.25;;;18.31;90.84
17936;BME280;9093;52.062;4.508;2023-07-31T08:47:00;100869.53;;;18.32;90.93
17936;BME280;9093;52.062;4.508;2023-07-31T08:49:42;100861.00;;;18.37;90.90
17936;BME280;9093;52.062;4.508;2023-07-31T08:52:22;100869.69;;;18.40;91.07
17936;BME280;9093;52.062;4.508;2023-07-31T08:55:05;100869.47;;;18.43;90.72
17936;BME280;9093;52.062;4.508;2023-07-31T08:57:46;100869.47;;;18.43;90.89
17936;BME280;9093;52.062;4.508;2023-07-31T09:00:27;100870.31;;;18.44;90.89
17936;BME280;9093;52.062;4.508;2023-07-31T09:03:15;100871.19;;;18.44;91.00
17936;BME280;9093;52.062;4.508;2023-07-31T09:05:56;100864.91;;;18.44;90.77
17936;BME280;9093;52.062;4.508;2023-07-31T09:08:41;100867.47;;;18.45;90.92
17936;BME280;9093;52.062;4.508;2023-07-31T09:11:24;100874.59;;;18.46;91.03
17936;BME280;9093;52.062;4.508;2023-07-31T09:14:05;100871.44;;;18.41;90.91
17936;BME280;9093;52.062;4.508;2023-07-31T09:16:52;100875.97;;;18.41;90.90
17936;BME280;9093;52.062;4.508;2023-07-31T09:19:35;100867.59;;;18.44;90.86
17936;BME280;9093;52.062;4.508;2023-07-31T09:22:17;100872.91;;;18.45;91.05
17936;BME280;9093;52.062;4.508;2023-07-31T09:27:59;100869.50;;;18.53;91.25
17936;BME280;9093;52.062;4.508;2023-07-31T09:30:47;100863.75;;;18.58;91.17
17936;BME280;9093;52.062;4.508;2023-07-31T09:33:28;100859.91;;;18.60;90.86
17936;BME280;9093;52.062;4.508;2023-07-31T09:36:08;100862.47;;;18.62;91.05
17936;BME280;9093;52.062;4.508;2023-07-31T09:38:48;100874.16;;;18.62;90.86
17936;BME280;9093;52.062;4.508;2023-07-31T09:41:30;100856.09;;;18.63;90.90
17936;BME280;9093;52.062;4.508;2023-07-31T09:44:11;100855.97;;;18.64;91.17
17936;BME280;9093;52.062;4.508;2023-07-31T09:46:51;100852.13;;;18.67;91.04
17936;BME280;9093;52.062;4.508;2023-07-31T09:49:31;100854.56;;;18.70;90.96
17936;BME280;9093;52.062;4.508;2023-07-31T09:52:12;100850.03;;;18.70;91.02
17936;BME280;9093;52.062;4.508;2023-07-31T09:54:54;100866.09;;;18.72;91.05
17936;BME280;9093;52.062;4.508;2023-07-31T09:57:45;100854.56;;;18.70;90.95
17936;BME280;9093;52.062;4.508;2023-07-31T10:00:26;100861.69;;;18.71;91.17
17936;BME280;9093;52.062;4.508;2023-07-31T10:03:09;100859.69;;;18.73;91.24
17936;BME280;9093;52.062;4.508;2023-07-31T10:05:50;100850.72;;;18.72;90.92
17936;BME280;9093;52.062;4.508;2023-07-31T10:08:34;100852.56;;;18.72;91.05
17936;BME280;9093;52.062;4.508;2023-07-31T10:11:16;100855.13;;;18.73;91.26
17936;BME280;9093;52.062;4.508;2023-07-31T10:13:57;100852.31;;;18.75;91.23
17936;BME280;9093;52.062;4.508;2023-07-31T10:16:38;100857.72;;;18.75;91.05
17936;BME280;9093;52.062;4.508;2023-07-31T10:19:20;100856.44;;;18.79;91.21
17936;BME280;9093;52.062;4.508;2023-07-31T10:22:02;100851.66;;;18.82;91.08
17936;BME280;9093;52.062;4.508;2023-07-31T10:24:43;100866.59;;;18.86;91.12
17936;BME280;9093;52.062;4.508;2023-07-31T10:27:23;100862.91;;;18.87;90.88
17936;BME280;9093;52.062;4.508;2023-07-31T10:30:06;100860.06;;;18.89;90.91
17936;BME280;9093;52.062;4.508;2023-07-31T10:32:48;100859.78;;;18.92;90.97
17936;BME280;9093;52.062;4.508;2023-07-31T10:35:30;100859.78;;;18.92;90.96
17936;BME280;9093;52.062;4.508;2023-07-31T10:38:11;100856.69;;;18.97;90.88
17936;BME280;9093;52.062;4.508;2023-07-31T10:40:52;100852.00;;;18.99;90.90
17936;BME280;9093;52.062;4.508;2023-07-31T10:43:32;100860.09;;;18.99;90.87
17936;BME280;9093;52.062;4.508;2023-07-31T10:46:13;100854.56;;;19.00;90.95
17936;BME280;9093;52.062;4.508;2023-07-31T10:48:58;100864.66;;;18.98;90.71
17936;BME280;9093;52.062;4.508;2023-07-31T10:51:40;100850.44;;;18.96;90.89
17936;BME280;9093;52.062;4.508;2023-07-31T10:54:20;100854.97;;;18.96;90.74
17936;BME280;9093;52.062;4.508;2023-07-31T10:57:01;100861.25;;;18.96;90.87
17936;BME280;9093;52.062;4.508;2023-07-31T10:59:41;100859.53;;;18.95;90.67
17936;BME280;9093;52.062;4.508;2023-07-31T11:02:26;100853.25;;;18.95;90.91
17936;BME280;9093;52.062;4.508;2023-07-31T11:05:08;100844.28;;;18.94;90.95
17936;BME280;9093;52.062;4.508;2023-07-31T11:07:49;100848.72;;;18.95;90.89
17936;BME280;9093;52.062;4.508;2023-07-31T11:10:29;100834.19;;;18.96;90.95
17936;BME280;9093;52.062;4.508;2023-07-31T11:13:10;100834.63;;;19.01;91.05
17936;BME280;9093;52.062;4.508;2023-07-31T11:15:50;100826.53;;;19.01;91.03
17936;BME280;9093;52.062;4.508;2023-07-31T11:18:31;100838.03;;;19.03;90.89
17936;BME280;9093;52.062;4.508;2023-07-31T11:21:20;100844.19;;;19.05;90.91
17936;BME280;9093;52.062;4.508;2023-07-31T11:24:00;100828.69;;;19.07;91.07
17936;BME280;9093;52.062;4.508;2023-07-31T11:26:53;100824.81;;;19.10;91.01
17936;BME280;9093;52.062;4.508;2023-07-31T11:29:34;100824.56;;;19.13;90.88
17936;BME280;9093;52.062;4.508;2023-07-31T11:32:17;100814.31;;;19.16;90.71
17936;BME280;9093;52.062;4.508;2023-07-31T11:34:58;100804.50;;;19.15;91.06
17936;BME280;9093;52.062;4.508;2023-07-31T11:37:42;100817.16;;;19.15;90.81
17936;BME280;9093;52.062;4.508;2023-07-31T11:40:23;100825.13;;;19.16;90.90
17936;BME280;9093;52.062;4.508;2023-07-31T11:43:08;100827.69;;;19.18;91.07
17936;BME280;9093;52.062;4.508;2023-07-31T11:45:51;100832.25;;;19.17;90.81
17936;BME280;9093;52.062;4.508;2023-07-31T11:48:34;100829.56;;;19.17;90.89
17936;BME280;9093;52.062;4.508;2023-07-31T11:51:16;100848.63;;;19.16;90.67
17936;BME280;9093;52.062;4.508;2023-07-31T11:53:59;100847.94;;;19.14;90.90
17936;BME280;9093;52.062;4.508;2023-07-31T11:56:41;100850.75;;;19.12;90.93
17936;BME280;9093;52.062;4.508;2023-07-31T11:59:21;100839.09;;;19.12;90.90
17936;BME280;9093;52.062;4.508;2023-07-31T12:02:02;100847.06;;;19.13;91.04
17936;BME280;9093;52.062;4.508;2023-07-31T12:04:42;100827.13;;;19.14;90.87
17936;BME280;9093;52.062;4.508;2023-07-31T12:07:24;100819.88;;;19.15;90.89
17936;BME280;9093;52.062;4.508;2023-07-31T12:10:04;100816.00;;;19.17;91.01
17936;BME280;9093;52.062;4.508;2023-07-31T12:13:41;100815.03;;;19.18;90.87
17936;BME280;9093;52.062;4.508;2023-07-31T12:15:57;100819.16;;;19.22;91.06
17936;BME280;9093;52.062;4.508;2023-07-31T12:18:38;100808.34;;;19.22;90.75
17936;BME280;9093;52.062;4.508;2023-07-31T12:21:19;100798.53;;;19.21;90.78
17936;BME280;9093;52.062;4.508;2023-07-31T12:24:01;100806.34;;;19.24;90.90
17936;BME280;9093;52.062;4.508;2023-07-31T12:26:45;100804.38;;;19.26;91.01
17936;BME280;9093;52.062;4.508;2023-07-31T12:29:36;100801.53;;;19.28;91.26
17936;BME280;9093;52.062;4.508;2023-07-31T12:32:23;100799.53;;;19.30;90.70
17936;BME280;9093;52.062;4.508;2023-07-31T12:35:08;100794.53;;;19.35;90.84
17936;BME280;9093;52.062;4.508;2023-07-31T12:37:48;100792.44;;;19.39;90.81
17936;BME280;9093;52.062;4.508;2023-07-31T12:40:29;100777.59;;;19.43;90.85
17936;BME280;9093;52.062;4.508;2023-07-31T12:43:09;100778.22;;;19.46;90.76
17936;BME280;9093;52.062;4.508;2023-07-31T12:45:49;100767.94;;;19.50;90.78
17936;BME280;9093;52.062;4.508;2023-07-31T12:48:31;100776.38;;;19.56;90.85
17936;BME280;9093;52.062;4.508;2023-07-31T12:51:12;100795.06;;;19.59;90.77
17936;BME280;9093;52.062;4.508;2023-07-31T12:53:52;100799.63;;;19.59;90.42
17936;BME280;9093;52.062;4.508;2023-07-31T12:56:32;100790.63;;;19.58;90.55
17936;BME280;9093;52.062;4.508;2023-07-31T12:59:13;100797.91;;;19.58;90.39
17936;BME280;9093;52.062;4.508;2023-07-31T13:01:54;100774.50;;;19.57;90.60
17936;BME280;9093;52.062;4.508;2023-07-31T13:04:34;100777.09;;;19.58;90.74
17936;BME280;9093;52.062;4.508;2023-07-31T13:07:14;100764.53;;;19.57;90.91
17936;BME280;9093;52.062;4.508;2023-07-31T13:09:55;100769.38;;;19.54;90.64
17936;BME280;9093;52.062;4.508;2023-07-31T13:12:35;100786.78;;;19.51;90.83
17936;BME280;9093;52.062;4.508;2023-07-31T13:15:16;100762.84;;;19.47;90.95
17936;BME280;9093;52.062;4.508;2023-07-31T13:17:56;100761.34;;;19.43;90.97
17936;BME280;9093;52.062;4.508;2023-07-31T13:20:36;100768.78;;;19.41;91.17
17936;BME280;9093;52.062;4.508;2023-07-31T13:23:17;100770.47;;;19.42;91.10
17936;BME280;9093;52.062;4.508;2023-07-31T13:25:57;100759.63;;;19.42;91.27
17936;BME280;9093;52.062;4.508;2023-07-31T13:28:37;100768.63;;;19.42;91.16
17936;BME280;9093;52.062;4.508;2023-07-31T13:31:18;100757.09;;;19.40;91.54
17936;BME280;9093;52.062;4.508;2023-07-31T13:33:58;100752.81;;;19.38;91.17
17936;BME280;9093;52.062;4.508;2023-07-31T13:36:38;100750.81;;;19.40;91.47
17936;BME280;9093;52.062;4.508;2023-07-31T13:39:19;100744.41;;;19.41;91.44
17936;BME280;9093;52.062;4.508;2023-07-31T13:41:59;100752.25;;;19.44;91.15
17936;BME280;9093;52.062;4.508;2023-07-31T13:44:41;100746.09;;;19.42;91.27
17936;BME280;9093;52.062;4.508;2023-07-31T13:47:21;100743.41;;;19.42;91.42
17936;BME280;9093;52.062;4.508;2023-07-31T13:50:02;100749.84;;;19.41;91.42
17936;BME280;9093;52.062;4.508;2023-07-31T13:52:42;100767.34;;;19.37;91.56
17936;BME280;9093;52.062;4.508;2023-07-31T13:55:23;100755.09;;;19.33;91.60
17936;BME280;9093;52.062;4.508;2023-07-31T13:58:03;100761.91;;;19.37;91.48
17936;BME280;9093;52.062;4.508;2023-07-31T14:00:43;100734.84;;;19.37;91.33
17936;BME280;9093;52.062;4.508;2023-07-31T14:03:23;100736.56;;;19.38;91.26
17936;BME280;9093;52.062;4.508;2023-07-31T14:06:04;100728.75;;;19.35;91.49
17936;BME280;9093;52.062;4.508;2023-07-31T14:08:44;100726.31;;;19.32;91.41
17936;BME280;9093;52.062;4.508;2023-07-31T14:11:24;100727.28;;;19.31;91.63
17936;BME280;9093;52.062;4.508;2023-07-31T14:14:05;100722.88;;;19.29;91.42
17936;BME280;9093;52.062;4.508;2023-07-31T14:16:45;100721.03;;;19.30;91.65
17936;BME280;9093;52.062;4.508;2023-07-31T14:19:25;100719.16;;;19.31;91.52